Time;durP1;ratioP1;P1;durP2;ratioP2;P2;SDS_P1;SDS_P2;PMS_P1;PMS_P2;Temp;Humidity;BMP_temperature;BMP_pressure;BME280_temperature;BME280_humidity;BME280_pressure;Samples;Min_cycle;Max_cycle;Signal;HPM_P1;HPM_P2
2021/09/12 00:01:54;;;;;;;2.35;0.90;;;17.00;50.50;;;;;;5031312;28;20220;-60
2021/09/12 00:04:24;;;;;;;1.63;0.95;;;17.00;50.40;;;;;;5030792;28;20314;-58
2021/09/12 00:06:55;;;;;;;2.80;0.90;;;17.10;50.40;;;;;;5030422;28;20607;-59
2021/09/12 00:09:25;;;;;;;2.47;1.17;;;17.10;50.50;;;;;;5030581;28;20235;-59
2021/09/12 00:11:57;;;;;;;1.60;1.02;;;17.10;50.50;;;;;;5030766;28;20643;-61
2021/09/12 00:14:28;;;;;;;1.85;1.00;;;17.20;50.50;;;;;;5031254;28;20669;-58
2021/09/12 00:17:00;;;;;;;4.68;1.20;;;17.20;50.50;;;;;;5030847;28;20232;-61
2021/09/12 00:19:30;;;;;;;3.75;1.20;;;17.20;50.50;;;;;;5031044;28;20632;-60
2021/09/12 00:22:01;;;;;;;3.08;1.30;;;17.20;50.50;;;;;;5030257;28;20259;-61
2021/09/12 00:24:31;;;;;;;2.42;1.23;;;17.30;50.50;;;;;;5030644;28;20263;-54
2021/09/12 00:27:02;;;;;;;2.63;1.30;;;17.30;50.50;;;;;;5030783;28;20232;-59
2021/09/12 00:29:32;;;;;;;2.70;1.48;;;17.30;50.50;;;;;;5030471;28;20212;-59
2021/09/12 00:32:05;;;;;;;3.28;1.40;;;17.30;50.50;;;;;;5030977;28;20262;-60
2021/09/12 00:34:35;;;;;;;2.95;1.50;;;17.30;50.50;;;;;;5030965;28;20235;-60
2021/09/12 00:37:06;;;;;;;3.80;1.67;;;17.40;50.60;;;;;;5030722;28;20196;-60
2021/09/12 00:39:36;;;;;;;4.00;1.75;;;17.40;50.50;;;;;;5030574;28;20649;-61
2021/09/12 00:42:07;;;;;;;4.30;1.77;;;17.50;50.50;;;;;;5030899;28;20710;-59
2021/09/12 00:44:37;;;;;;;2.58;1.70;;;17.50;50.50;;;;;;5031019;28;20294;-60
2021/09/12 00:47:13;;;;;;;6.65;1.90;;;17.60;50.60;;;;;;5031202;28;20232;-58
2021/09/12 00:49:44;;;;;;;2.95;1.50;;;17.60;50.50;;;;;;5030581;28;20637;-57
2021/09/12 00:52:14;;;;;;;3.42;1.77;;;17.60;50.50;;;;;;5030115;28;20258;-60
2021/09/12 00:54:45;;;;;;;4.07;1.70;;;17.70;50.50;;;;;;5030201;28;20246;-60
2021/09/12 00:57:15;;;;;;;4.00;1.90;;;17.70;50.50;;;;;;5030798;28;20232;-60
2021/09/12 00:59:46;;;;;;;3.70;2.10;;;17.70;50.40;;;;;;5030430;28;20197;-60
2021/09/12 01:02:20;;;;;;;4.10;1.88;;;17.70;50.40;;;;;;5033780;28;20259;-60
2021/09/12 01:04:50;;;;;;;4.82;1.75;;;17.70;50.40;;;;;;5034078;28;20232;-54
2021/09/12 01:07:20;;;;;;;4.05;1.85;;;17.80;50.40;;;;;;5034002;28;20289;-59
2021/09/12 01:09:51;;;;;;;2.10;1.40;;;17.80;50.40;;;;;;5034014;28;20235;-61
2021/09/12 01:12:21;;;;;;;4.28;1.85;;;17.80;50.30;;;;;;5033699;28;20239;-60
2021/09/12 01:14:52;;;;;;;3.60;1.63;;;17.90;50.30;;;;;;5033561;28;20235;-60
2021/09/12 01:17:27;;;;;;;3.15;1.77;;;17.90;50.20;;;;;;5034266;28;20243;-61
2021/09/12 01:19:58;;;;;;;3.30;1.98;;;17.90;50.20;;;;;;5033715;28;20231;-60
2021/09/12 01:22:29;;;;;;;3.33;2.05;;;17.90;50.10;;;;;;5033785;28;20242;-60
2021/09/12 01:25:01;;;;;;;5.47;1.95;;;18.00;50.10;;;;;;5034074;28;20317;-55
2021/09/12 01:27:31;;;;;;;4.10;1.80;;;18.00;50.00;;;;;;5033865;28;20242;-59
2021/09/12 01:30:03;;;;;;;2.65;1.52;;;18.00;50.00;;;;;;5033397;28;20243;-61
2021/09/12 01:32:34;;;;;;;4.35;1.98;;;18.00;50.00;;;;;;5033027;28;20239;-60
2021/09/12 01:35:04;;;;;;;2.83;1.92;;;18.10;49.90;;;;;;5032935;28;20232;-61
2021/09/12 01:37:35;;;;;;;4.20;1.90;;;18.10;49.90;;;;;;5033457;28;20227;-60
2021/09/12 01:40:08;;;;;;;3.72;1.70;;;18.10;49.90;;;;;;5033279;28;20227;-55
2021/09/12 01:42:38;;;;;;;3.80;1.75;;;18.10;49.80;;;;;;5032943;28;20283;-60
2021/09/12 01:45:09;;;;;;;3.60;1.80;;;18.10;49.70;;;;;;5033130;28;20267;-61
2021/09/12 01:47:40;;;;;;;4.78;2.05;;;18.10;49.70;;;;;;5033933;28;20287;-58
2021/09/12 01:50:11;;;;;;;3.50;1.80;;;18.10;49.60;;;;;;5033245;28;20587;-57
2021/09/12 01:52:42;;;;;;;2.08;1.38;;;18.10;49.60;;;;;;5033028;28;20254;-61
2021/09/12 01:55:15;;;;;;;4.22;1.73;;;18.20;49.60;;;;;;5033045;28;20193;-63
2021/09/12 01:57:45;;;;;;;2.80;1.55;;;18.20;49.40;;;;;;5032631;28;20224;-60
2021/09/12 02:00:16;;;;;;;2.40;1.45;;;18.20;49.40;;;;;;5032653;28;20251;-61
2021/09/12 02:02:46;;;;;;;3.60;1.75;;;18.20;49.30;;;;;;5032826;28;20231;-58
2021/09/12 02:05:17;;;;;;;3.10;1.60;;;18.20;49.30;;;;;;5032731;28;20627;-62
2021/09/12 02:07:47;;;;;;;3.10;1.50;;;18.20;49.20;;;;;;5033128;28;20635;-61
2021/09/12 02:10:25;;;;;;;2.97;1.65;;;18.20;49.20;;;;;;5032633;28;20255;-61
2021/09/12 02:12:56;;;;;;;2.67;1.58;;;18.30;49.20;;;;;;5032085;28;20442;-59
2021/09/12 02:15:26;;;;;;;3.72;1.40;;;18.20;49.20;;;;;;5032548;28;20250;-58
2021/09/12 02:17:57;;;;;;;1.63;1.10;;;18.20;49.10;;;;;;5032706;28;20306;-61
2021/09/12 02:20:28;;;;;;;1.75;1.20;;;18.20;49.10;;;;;;5032695;28;20479;-61
2021/09/12 02:22:58;;;;;;;1.92;1.50;;;18.20;49.00;;;;;;5032540;28;20254;-61
2021/09/12 02:25:30;;;;;;;2.35;1.50;;;18.20;49.00;;;;;;5032173;28;20712;-61
2021/09/12 02:28:01;;;;;;;1.80;1.30;;;18.30;49.10;;;;;;5032329;28;20196;-60
2021/09/12 02:30:31;;;;;;;2.25;1.30;;;18.20;48.90;;;;;;5031937;28;20278;-60
2021/09/12 02:33:02;;;;;;;2.30;1.33;;;18.20;48.90;;;;;;5032371;28;20204;-63
2021/09/12 02:35:32;;;;;;;1.75;1.35;;;18.20;48.80;;;;;;5032416;28;20277;-60
2021/09/12 02:38:03;;;;;;;1.20;1.10;;;18.30;48.80;;;;;;5032195;28;20679;-61
2021/09/12 02:40:35;;;;;;;2.88;1.13;;;18.20;48.60;;;;;;5031940;28;20780;-60
2021/09/12 02:43:06;;;;;;;1.52;0.95;;;18.30;48.70;;;;;;5032234;28;20668;-61
2021/09/12 02:45:37;;;;;;;2.58;1.08;;;18.20;48.60;;;;;;5032698;28;20227;-61
2021/09/12 02:48:07;;;;;;;1.33;1.05;;;18.30;48.50;;;;;;5033224;28;20254;-61
2021/09/12 02:50:38;;;;;;;2.08;1.08;;;18.30;48.50;;;;;;5031977;28;20266;-57
2021/09/12 02:53:08;;;;;;;3.28;1.00;;;18.30;48.50;;;;;;5031866;28;20612;-60
2021/09/12 02:55:41;;;;;;;1.90;1.27;;;18.30;48.40;;;;;;5032026;28;20676;-56
2021/09/12 02:58:11;;;;;;;2.05;1.08;;;18.30;48.40;;;;;;5031492;28;20266;-60
2021/09/12 03:00:41;;;;;;;2.15;1.20;;;18.30;48.40;;;;;;5031152;28;20306;-61
2021/09/12 03:03:12;;;;;;;2.67;1.20;;;18.30;48.40;;;;;;5031537;28;20281;-61
2021/09/12 03:05:42;;;;;;;1.88;1.02;;;18.30;48.40;;;;;;5031563;28;20700;-61
2021/09/12 03:08:13;;;;;;;1.58;1.05;;;18.20;48.30;;;;;;5031795;28;20703;-59
2021/09/12 03:10:45;;;;;;;1.75;1.10;;;18.20;48.20;;;;;;5031617;28;20224;-62
2021/09/12 03:13:15;;;;;;;1.55;0.93;;;18.20;48.20;;;;;;5032202;28;20253;-59
2021/09/12 03:15:46;;;;;;;1.58;1.00;;;18.30;48.20;;;;;;5032076;28;20230;-61
2021/09/12 03:18:16;;;;;;;1.40;0.90;;;18.20;48.10;;;;;;5031809;28;20234;-55
2021/09/12 03:20:47;;;;;;;1.35;1.10;;;18.30;48.30;;;;;;5031651;28;20255;-60
2021/09/12 03:23:17;;;;;;;1.60;1.00;;;18.20;48.10;;;;;;5030700;28;20197;-56
2021/09/12 03:25:50;;;;;;;1.65;0.95;;;18.30;48.10;;;;;;5031443;28;20294;-60
2021/09/12 03:28:20;;;;;;;1.60;0.98;;;18.30;48.10;;;;;;5031498;28;20235;-62
2021/09/12 03:30:50;;;;;;;1.95;0.90;;;18.30;48.10;;;;;;5031379;28;20259;-61
2021/09/12 03:33:21;;;;;;;1.02;0.70;;;18.30;48.10;;;;;;5030882;28;20227;-60
2021/09/12 03:35:55;;;;;;;1.35;0.77;;;18.30;48.00;;;;;;5031188;28;20660;-60
2021/09/12 03:38:29;;;;;;;1.13;0.90;;;18.30;47.90;;;;;;5029763;28;20286;-59
2021/09/12 03:41:01;;;;;;;1.30;0.90;;;18.30;47.90;;;;;;5032133;28;20274;-62
2021/09/12 03:43:32;;;;;;;0.70;0.70;;;18.30;47.90;;;;;;5031898;28;20239;-61
2021/09/12 03:46:02;;;;;;;1.38;0.68;;;18.20;47.90;;;;;;5031762;28;20325;-61
2021/09/12 03:48:33;;;;;;;0.90;0.75;;;18.30;48.00;;;;;;5030981;28;20228;-60
2021/09/12 03:51:03;;;;;;;1.25;0.70;;;18.30;48.00;;;;;;5031190;28;20252;-59
2021/09/12 03:53:33;;;;;;;0.88;0.63;;;18.30;47.90;;;;;;5031159;28;20282;-61
2021/09/12 03:56:06;;;;;;;0.77;0.60;;;18.30;48.10;;;;;;5031409;28;20204;-57
2021/09/12 03:58:36;;;;;;;2.03;0.95;;;18.20;48.00;;;;;;5030657;28;20234;-60
2021/09/12 04:01:07;;;;;;;1.60;0.88;;;18.30;48.10;;;;;;5030017;28;20255;-62
2021/09/12 04:03:37;;;;;;;1.50;0.70;;;18.30;48.10;;;;;;5031062;28;20281;-60
2021/09/12 04:06:08;;;;;;;0.88;0.70;;;18.30;48.10;;;;;;5030613;28;20311;-56
2021/09/12 04:08:38;;;;;;;2.13;0.90;;;18.30;48.10;;;;;;5030919;28;20259;-60
2021/09/12 04:11:11;;;;;;;1.02;0.73;;;18.30;48.10;;;;;;5030694;28;20223;-60
2021/09/12 04:13:41;;;;;;;0.68;0.65;;;18.30;48.10;;;;;;5030884;28;20234;-59
2021/09/12 04:16:11;;;;;;;1.20;0.80;;;18.30;48.10;;;;;;5031105;28;20670;-61
2021/09/12 04:18:42;;;;;;;1.65;0.70;;;18.30;48.10;;;;;;5031008;28;20581;-61
2021/09/12 04:21:12;;;;;;;0.50;0.50;;;18.30;48.10;;;;;;5030828;28;20660;-61
2021/09/12 04:23:43;;;;;;;1.02;0.60;;;18.30;48.00;;;;;;5030529;28;20196;-55
2021/09/12 04:26:15;;;;;;;0.95;0.60;;;18.30;48.00;;;;;;5031147;28;20671;-59
2021/09/12 04:28:45;;;;;;;0.70;0.60;;;18.30;48.00;;;;;;5030524;28;20605;-59
2021/09/12 04:31:16;;;;;;;0.85;0.52;;;18.30;47.90;;;;;;5030519;28;20644;-58
2021/09/12 04:33:46;;;;;;;0.70;0.68;;;18.30;47.90;;;;;;5030846;28;20265;-61
2021/09/12 04:36:17;;;;;;;0.68;0.47;;;18.30;48.00;;;;;;5034305;28;20233;-58
2021/09/12 04:38:47;;;;;;;0.60;0.50;;;18.30;47.60;;;;;;5034528;28;20258;-57
2021/09/12 04:41:19;;;;;;;1.50;0.50;;;18.30;47.50;;;;;;5034622;28;20303;-53
2021/09/12 04:43:50;;;;;;;0.50;0.50;;;18.30;47.40;;;;;;5034352;28;20196;-59
2021/09/12 04:46:20;;;;;;;0.80;0.50;;;18.30;47.80;;;;;;5034918;28;20227;-55
2021/09/12 04:48:51;;;;;;;0.63;0.30;;;18.30;47.20;;;;;;5034612;28;20299;-58
2021/09/12 04:51:21;;;;;;;0.95;0.63;;;18.30;47.20;;;;;;5034030;28;20220;-59
2021/09/12 04:53:52;;;;;;;0.65;0.40;;;18.30;47.20;;;;;;5033580;28;20294;-58
2021/09/12 04:56:24;;;;;;;0.60;0.50;;;18.30;47.20;;;;;;5034032;28;20295;-55
2021/09/12 04:58:55;;;;;;;0.90;0.40;;;18.30;47.20;;;;;;5034112;28;20236;-59
2021/09/12 05:01:25;;;;;;;0.82;0.60;;;18.30;47.30;;;;;;5033284;28;21078;-57
2021/09/12 05:03:56;;;;;;;0.40;0.40;;;18.30;47.30;;;;;;5033781;28;20242;-64
2021/09/12 05:06:26;;;;;;;1.05;0.30;;;18.40;47.40;;;;;;5033805;28;20263;-57
2021/09/12 05:08:57;;;;;;;0.70;0.45;;;18.30;47.30;;;;;;5034102;28;20200;-58
2021/09/12 05:11:29;;;;;;;1.58;0.50;;;18.30;47.40;;;;;;5034114;28;20256;-58
2021/09/12 05:13:59;;;;;;;0.50;0.50;;;18.40;47.50;;;;;;5033792;28;20200;-55
2021/09/12 05:16:30;;;;;;;1.25;0.60;;;18.40;47.60;;;;;;5033791;28;20314;-53
2021/09/12 05:19:00;;;;;;;3.08;0.70;;;18.40;47.70;;;;;;5033913;28;20228;-50
2021/09/12 05:21:31;;;;;;;2.95;0.73;;;18.50;47.80;;;;;;5033885;28;20326;-60
2021/09/12 05:24:01;;;;;;;2.35;0.40;;;18.50;47.80;;;;;;5033632;28;20192;-54
2021/09/12 05:26:33;;;;;;;0.75;0.50;;;18.50;47.80;;;;;;5033307;28;20333;-59
2021/09/12 05:29:04;;;;;;;3.13;0.60;;;18.50;47.80;;;;;;5033455;28;20350;-53
2021/09/12 05:31:34;;;;;;;0.77;0.63;;;18.60;47.90;;;;;;5033517;28;20216;-51
2021/09/12 05:34:05;;;;;;;0.60;0.30;;;18.60;47.80;;;;;;5033655;28;20224;-53
2021/09/12 05:36:35;;;;;;;1.17;0.50;;;18.60;47.80;;;;;;5033277;28;20227;-52
2021/09/12 05:39:06;;;;;;;1.80;0.47;;;18.60;47.80;;;;;;5033686;28;20223;-53
2021/09/12 05:41:38;;;;;;;1.88;0.38;;;18.70;47.70;;;;;;5033522;28;20266;-48
2021/09/12 05:44:08;;;;;;;1.27;0.50;;;18.70;47.70;;;;;;5032794;28;20238;-49
2021/09/12 05:46:39;;;;;;;1.48;0.50;;;18.70;47.70;;;;;;5032786;28;20306;-58
2021/09/12 05:49:09;;;;;;;0.73;0.50;;;18.70;47.60;;;;;;5033387;28;20231;-58
2021/09/12 05:51:40;;;;;;;2.38;0.55;;;18.70;47.60;;;;;;5033336;28;20248;-55
2021/09/12 05:54:10;;;;;;;0.75;0.50;;;18.80;47.60;;;;;;5032871;28;20286;-53
2021/09/12 05:56:42;;;;;;;0.60;0.40;;;18.80;47.50;;;;;;5032989;28;20624;-54
2021/09/12 05:59:13;;;;;;;2.53;0.40;;;18.80;47.60;;;;;;5032296;28;20285;-48
2021/09/12 06:01:43;;;;;;;0.73;0.40;;;18.80;47.60;;;;;;5032601;28;20255;-55
2021/09/12 06:04:14;;;;;;;5.70;0.70;;;18.80;47.70;;;;;;5033235;28;20200;-51
2021/09/12 06:06:44;;;;;;;0.98;0.55;;;18.80;47.80;;;;;;5033117;28;20282;-51
2021/09/12 06:09:15;;;;;;;1.15;0.30;;;18.80;47.90;;;;;;5032453;28;20289;-53
2021/09/12 06:11:47;;;;;;;1.42;0.35;;;18.80;47.90;;;;;;5030008;28;20220;-52
2021/09/12 06:14:18;;;;;;;3.90;0.70;;;18.80;47.80;;;;;;5031466;28;20228;-54
2021/09/12 06:16:48;;;;;;;0.32;0.32;;;18.80;47.70;;;;;;5032711;28;20196;-56
2021/09/12 06:19:19;;;;;;;2.10;0.40;;;18.80;47.60;;;;;;5033092;28;20196;-52
2021/09/12 06:25:36;;;;;;;1.55;0.50;;;18.80;48.30;;;;;;5032119;28;20203;-52
2021/09/12 06:28:23;;;;;;;1.90;0.40;;;18.80;47.70;;;;;;4996390;28;20235;-51
2021/09/12 06:34:19;;;;;;;1.75;0.40;;;18.90;47.70;;;;;;5031109;28;20730;-52
2021/09/12 06:37:15;;;;;;;0.47;0.40;;;18.80;47.60;;;;;;5031693;28;20204;-56
2021/09/12 06:40:40;;;;;;;2.30;0.40;;;18.90;47.60;;;;;;5025788;28;20232;-53
2021/09/12 06:43:21;;;;;;;0.40;0.40;;;18.80;47.60;;;;;;5015894;28;20233;-50
2021/09/12 06:46:00;;;;;;;4.68;0.50;;;18.80;47.60;;;;;;5011229;28;20229;-58
2021/09/12 06:48:38;;;;;;;1.25;0.50;;;18.80;47.80;;;;;;5018039;28;20232;-55
2021/09/12 06:51:10;;;;;;;2.50;0.50;;;18.80;48.20;;;;;;5029138;28;20220;-57
2021/09/12 06:53:48;;;;;;;2.95;0.55;;;18.80;48.40;;;;;;5025215;28;20246;-57
2021/09/12 06:56:19;;;;;;;1.90;0.60;;;18.90;48.40;;;;;;5028398;28;20352;-55
2021/09/12 06:58:51;;;;;;;3.20;0.47;;;18.90;48.50;;;;;;5026365;28;20266;-52
2021/09/12 07:01:23;;;;;;;1.05;0.40;;;18.90;48.50;;;;;;5027287;28;20254;-58
2021/09/12 07:03:56;;;;;;;2.95;0.52;;;18.90;48.50;;;;;;5031094;28;20282;-55
2021/09/12 07:06:27;;;;;;;2.13;0.43;;;18.90;48.50;;;;;;5027536;28;20313;-54
2021/09/12 07:08:58;;;;;;;1.65;0.40;;;18.90;48.50;;;;;;5030324;28;20195;-55
2021/09/12 07:11:28;;;;;;;0.95;0.50;;;18.90;48.60;;;;;;5029686;28;20273;-54
2021/09/12 07:14:01;;;;;;;0.30;0.30;;;18.90;48.60;;;;;;5030664;28;20196;-52
2021/09/12 07:16:33;;;;;;;3.25;0.50;;;19.00;48.70;;;;;;5031227;28;20634;-55
2021/09/12 07:19:07;;;;;;;1.00;0.50;;;19.00;48.70;;;;;;5030163;28;20274;-54
2021/09/12 07:21:38;;;;;;;0.75;0.47;;;19.00;48.70;;;;;;5027710;28;20211;-53
2021/09/12 07:24:09;;;;;;;0.50;0.30;;;19.00;48.70;;;;;;5030117;28;20201;-54
2021/09/12 07:26:39;;;;;;;1.58;0.40;;;19.00;48.70;;;;;;5029577;28;20707;-54
2021/09/12 07:29:13;;;;;;;0.40;0.40;;;19.00;48.70;;;;;;5029785;28;20204;-49
2021/09/12 07:31:43;;;;;;;0.68;0.50;;;19.00;48.70;;;;;;5030204;28;20228;-51
2021/09/12 07:34:14;;;;;;;0.30;0.30;;;19.00;48.70;;;;;;5030415;28;20208;-53
2021/09/12 07:36:47;;;;;;;0.57;0.40;;;19.00;48.70;;;;;;5030524;28;20661;-58
2021/09/12 07:39:18;;;;;;;1.00;0.57;;;19.00;48.70;;;;;;5029918;28;20200;-53
2021/09/12 07:41:48;;;;;;;0.50;0.50;;;19.00;48.70;;;;;;5030347;28;20310;-49
2021/09/12 07:44:23;;;;;;;0.30;0.30;;;19.00;48.60;;;;;;5031218;28;20664;-52
2021/09/12 07:46:53;;;;;;;0.95;0.30;;;19.00;48.60;;;;;;5028966;28;20660;-51
2021/09/12 07:49:31;;;;;;;1.13;0.50;;;19.00;48.60;;;;;;5030048;28;20196;-51
2021/09/12 07:52:07;;;;;;;0.50;0.50;;;19.00;48.50;;;;;;5029339;28;20539;-55
2021/09/12 07:54:47;;;;;;;0.40;0.40;;;19.00;48.50;;;;;;5028308;28;20667;-48
2021/09/12 07:57:23;;;;;;;0.63;0.40;;;19.00;48.40;;;;;;5028895;28;20235;-49
2021/09/12 07:59:59;;;;;;;0.98;0.50;;;19.00;48.40;;;;;;5025426;28;20334;-51
2021/09/12 08:02:29;;;;;;;0.32;0.32;;;18.90;48.40;;;;;;5029267;28;20254;-52
2021/09/12 08:05:00;;;;;;;0.35;0.25;;;18.90;48.40;;;;;;5030592;28;20671;-53
2021/09/12 08:07:30;;;;;;;0.60;0.43;;;18.90;48.30;;;;;;5021889;28;20271;-46
2021/09/12 08:10:01;;;;;;;1.27;0.60;;;18.90;48.30;;;;;;5011866;28;20660;-53
2021/09/12 08:12:31;;;;;;;1.70;0.57;;;18.90;48.30;;;;;;5028964;28;20683;-51
2021/09/12 08:15:04;;;;;;;1.27;0.55;;;18.90;48.30;;;;;;5033913;28;20702;-57
2021/09/12 08:17:34;;;;;;;0.70;0.50;;;18.90;48.20;;;;;;5033428;28;20239;-59
2021/09/12 08:20:05;;;;;;;0.55;0.50;;;18.90;48.20;;;;;;5034684;28;20235;-59
2021/09/12 08:22:35;;;;;;;0.30;0.30;;;18.90;48.30;;;;;;5034983;28;20200;-54
2021/09/12 08:25:06;;;;;;;0.50;0.50;;;18.90;48.30;;;;;;5034622;28;20206;-58
2021/09/12 08:27:37;;;;;;;0.55;0.55;;;18.90;48.30;;;;;;5023438;28;20293;-50
2021/09/12 08:30:10;;;;;;;0.40;0.40;;;18.80;48.30;;;;;;5024300;28;20239;-55
2021/09/12 08:32:40;;;;;;;0.40;0.40;;;18.80;48.30;;;;;;5034494;28;20270;-59
2021/09/12 08:35:11;;;;;;;2.22;0.40;;;18.80;48.30;;;;;;5032911;28;20286;-58
2021/09/12 08:37:42;;;;;;;0.40;0.30;;;18.80;48.20;;;;;;5034423;28;20231;-58
2021/09/12 08:40:13;;;;;;;0.50;0.40;;;18.80;48.30;;;;;;5033172;28;20208;-59
2021/09/12 08:42:44;;;;;;;0.88;0.70;;;18.80;48.20;;;;;;5032624;28;20240;-58
2021/09/12 08:45:17;;;;;;;1.30;0.40;;;18.80;48.20;;;;;;5033823;28;20287;-57
2021/09/12 08:47:47;;;;;;;0.32;0.30;;;18.80;48.30;;;;;;5029790;28;20310;-58
2021/09/12 08:50:17;;;;;;;0.30;0.30;;;18.80;48.30;;;;;;5033122;28;20259;-54
2021/09/12 08:52:48;;;;;;;0.30;0.30;;;18.80;48.30;;;;;;5031911;28;20636;-58
2021/09/12 08:55:18;;;;;;;1.17;0.43;;;18.80;48.30;;;;;;5032528;28;20621;-57
2021/09/12 08:57:50;;;;;;;2.15;0.52;;;18.80;48.30;;;;;;5030619;28;20299;-57
2021/09/12 09:00:24;;;;;;;0.63;0.50;;;18.80;48.30;;;;;;5032799;28;20765;-58
2021/09/12 09:03:00;;;;;;;1.17;0.50;;;18.80;48.30;;;;;;5032604;28;20204;-54
2021/09/12 09:05:34;;;;;;;0.70;0.50;;;18.70;48.30;;;;;;5032623;28;20207;-56
2021/09/12 09:08:08;;;;;;;1.15;0.75;;;18.70;48.30;;;;;;5032298;28;20196;-54
2021/09/12 09:10:43;;;;;;;0.30;0.30;;;18.70;48.30;;;;;;5032770;28;20266;-57
2021/09/12 09:13:31;;;;;;;0.40;0.40;;;18.70;49.00;;;;;;5027422;28;20333;-58
2021/09/12 09:16:04;;;;;;;0.63;0.40;;;18.70;48.40;;;;;;5033129;28;20680;-57
2021/09/12 09:18:35;;;;;;;0.50;0.40;;;18.70;48.40;;;;;;5030385;28;20236;-54
2021/09/12 09:21:20;;;;;;;1.02;0.50;;;18.70;48.40;;;;;;5021783;28;20260;-56
2021/09/12 09:23:50;;;;;;;0.38;0.38;;;18.70;48.50;;;;;;5012993;28;20254;-56
2021/09/12 09:26:24;;;;;;;0.50;0.40;;;18.70;48.40;;;;;;5012498;28;20278;-56
2021/09/12 09:28:57;;;;;;;0.40;0.40;;;18.70;48.50;;;;;;5020137;28;20232;-56
2021/09/12 09:31:29;;;;;;;0.75;0.30;;;18.70;48.50;;;;;;5032533;28;20267;-60
2021/09/12 09:34:05;;;;;;;0.80;0.60;;;18.60;48.40;;;;;;5033116;28;20235;-48
2021/09/12 09:36:35;;;;;;;0.50;0.45;;;18.70;48.50;;;;;;5032425;28;20679;-55
2021/09/12 09:39:05;;;;;;;0.77;0.40;;;18.70;48.50;;;;;;5028477;28;20615;-55
2021/09/12 09:41:38;;;;;;;0.45;0.40;;;18.60;48.50;;;;;;5031852;28;20532;-55
2021/09/12 09:44:13;;;;;;;1.48;0.50;;;18.60;48.50;;;;;;5032717;28;20200;-52
2021/09/12 09:46:46;;;;;;;0.60;0.40;;;18.60;48.60;;;;;;5031827;28;20665;-51
2021/09/12 09:49:24;;;;;;;0.63;0.50;;;18.60;48.60;;;;;;5032261;28;20287;-53
2021/09/12 09:51:55;;;;;;;0.45;0.45;;;18.60;48.60;;;;;;5031866;28;20266;-52
2021/09/12 09:54:26;;;;;;;0.73;0.40;;;18.60;48.50;;;;;;5031266;28;20207;-50
2021/09/12 09:56:56;;;;;;;0.45;0.45;;;18.60;48.60;;;;;;5032570;28;20299;-51
2021/09/12 09:59:27;;;;;;;0.57;0.45;;;18.60;48.60;;;;;;5031168;28;20303;-55
2021/09/12 10:01:59;;;;;;;0.70;0.40;;;18.60;48.60;;;;;;5031693;28;20255;-55
2021/09/12 10:04:30;;;;;;;2.13;0.57;;;18.60;48.60;;;;;;5032568;28;20652;-58
2021/09/12 10:07:00;;;;;;;0.40;0.40;;;18.60;48.50;;;;;;5031889;28;20224;-51
2021/09/12 10:09:31;;;;;;;1.00;0.50;;;18.60;48.60;;;;;;5024034;28;20236;-54
2021/09/12 10:12:01;;;;;;;0.50;0.50;;;18.60;48.60;;;;;;5031930;28;20347;-55
2021/09/12 10:14:34;;;;;;;1.13;0.45;;;18.60;48.60;;;;;;5031776;28;20204;-59
2021/09/12 10:17:11;;;;;;;0.40;0.40;;;18.60;48.60;;;;;;5031794;28;20248;-58
2021/09/12 10:19:42;;;;;;;0.40;0.40;;;18.60;48.60;;;;;;5032369;28;20207;-56
2021/09/12 10:22:13;;;;;;;0.63;0.50;;;18.60;48.60;;;;;;5032073;28;20263;-58
2021/09/12 10:25:15;;;;;;;0.32;0.32;;;18.60;48.70;;;;;;5029013;28;20242;-58
2021/09/12 10:27:45;;;;;;;0.75;0.43;;;18.50;48.60;;;;;;5000310;28;20259;-59
2021/09/12 10:30:27;;;;;;;0.82;0.57;;;18.50;48.60;;;;;;5030836;28;20251;-57
2021/09/12 10:33:21;;;;;;;0.50;0.50;;;18.50;48.70;;;;;;5032204;28;20239;-58
2021/09/12 10:36:05;;;;;;;0.30;0.30;;;18.50;48.70;;;;;;5032537;28;20200;-53
2021/09/12 10:38:36;;;;;;;0.30;0.30;;;18.50;48.70;;;;;;5009713;28;20275;-58
2021/09/12 10:41:19;;;;;;;0.40;0.40;;;18.50;48.60;;;;;;5014439;28;20320;-53
2021/09/12 10:43:56;;;;;;;1.23;0.50;;;18.50;48.60;;;;;;5031490;28;20218;-57
2021/09/12 10:46:30;;;;;;;0.50;0.50;;;18.50;48.60;;;;;;5032134;28;20235;-58
2021/09/12 10:49:26;;;;;;;0.70;0.50;;;18.50;48.60;;;;;;5031666;28;20674;-58
2021/09/12 10:51:58;;;;;;;1.00;0.60;;;18.50;48.70;;;;;;5000784;28;20326;-48
2021/09/12 10:54:28;;;;;;;0.88;0.57;;;18.50;48.60;;;;;;5011624;28;20240;-54
2021/09/12 10:57:07;;;;;;;0.73;0.50;;;18.50;48.60;;;;;;5011831;28;20578;-52
2021/09/12 10:59:38;;;;;;;0.55;0.43;;;18.50;49.20;;;;;;5017765;28;20455;-55
2021/09/12 11:02:08;;;;;;;1.35;0.60;;;18.50;48.60;;;;;;5029285;28;20302;-57
2021/09/12 11:04:41;;;;;;;0.63;0.55;;;18.50;48.70;;;;;;5030864;28;20231;-57
2021/09/12 11:07:11;;;;;;;1.17;0.60;;;18.50;48.70;;;;;;5031263;28;20263;-50
2021/09/12 11:09:41;;;;;;;1.52;0.80;;;18.50;48.70;;;;;;5028529;28;20251;-53
2021/09/12 11:12:12;;;;;;;2.05;1.00;;;18.40;48.70;;;;;;5030880;28;20231;-58
2021/09/12 11:14:43;;;;;;;1.88;0.90;;;18.50;48.70;;;;;;5031102;28;20557;-58
2021/09/12 11:17:14;;;;;;;1.00;0.68;;;18.50;48.70;;;;;;5029777;28;20700;-57
2021/09/12 11:19:55;;;;;;;2.72;1.00;;;18.40;48.60;;;;;;5020135;28;20204;-58
2021/09/12 11:22:27;;;;;;;3.20;1.17;;;18.40;48.60;;;;;;5011169;28;20267;-52
2021/09/12 11:25:04;;;;;;;1.73;0.90;;;18.40;48.60;;;;;;5011654;28;20205;-57
2021/09/12 11:27:34;;;;;;;2.60;1.10;;;18.40;48.60;;;;;;5011524;28;20259;-54
2021/09/12 11:30:09;;;;;;;2.28;1.10;;;18.40;48.60;;;;;;5011310;28;20232;-53
2021/09/12 11:32:40;;;;;;;3.47;1.13;;;18.40;48.60;;;;;;5011845;28;20250;-51
2021/09/12 11:35:16;;;;;;;2.78;1.00;;;18.40;48.60;;;;;;5011818;28;20240;-48
2021/09/12 11:37:46;;;;;;;4.25;1.58;;;18.40;48.60;;;;;;5012065;28;20235;-50
2021/09/12 11:40:24;;;;;;;4.30;1.70;;;18.40;48.60;;;;;;5011505;28;20263;-54
2021/09/12 11:43:12;;;;;;;3.70;1.13;;;18.40;48.60;;;;;;5028710;28;20219;-53
2021/09/12 11:45:43;;;;;;;3.53;1.77;;;18.40;48.60;;;;;;5030702;28;20710;-53
2021/09/12 11:48:14;;;;;;;3.83;1.40;;;18.40;48.60;;;;;;5031276;28;20224;-57
2021/09/12 11:50:46;;;;;;;2.85;1.40;;;18.40;48.60;;;;;;5031515;28;20263;-49
2021/09/12 11:53:16;;;;;;;4.35;1.42;;;18.40;48.70;;;;;;5031362;28;20204;-50
2021/09/12 11:55:47;;;;;;;5.03;1.73;;;18.40;48.60;;;;;;5031417;28;20266;-52
2021/09/12 11:58:17;;;;;;;3.60;1.38;;;18.40;48.60;;;;;;5030881;28;20204;-52
2021/09/12 12:00:48;;;;;;;3.45;1.67;;;18.40;48.50;;;;;;5030409;28;20386;-49
2021/09/12 12:03:19;;;;;;;4.28;1.80;;;18.40;48.50;;;;;;5030825;28;20200;-54
2021/09/12 12:05:51;;;;;;;3.92;1.50;;;18.40;48.50;;;;;;5030918;28;20239;-54
2021/09/12 12:08:22;;;;;;;2.72;1.50;;;18.30;48.40;;;;;;5030769;28;20314;-54
2021/09/12 12:10:52;;;;;;;4.30;1.80;;;18.40;48.40;;;;;;5030608;28;20620;-49
2021/09/12 12:13:32;;;;;;;3.00;1.77;;;18.40;48.40;;;;;;5030939;28;20239;-53
2021/09/12 12:16:02;;;;;;;3.88;1.90;;;18.40;48.40;;;;;;5030892;28;20684;-51
2021/09/12 12:18:34;;;;;;;4.45;1.70;;;18.40;48.40;;;;;;5030862;28;20216;-50
2021/09/12 12:21:13;;;;;;;3.13;1.75;;;18.30;48.40;;;;;;5030941;28;20224;-52
2021/09/12 12:23:44;;;;;;;2.33;1.38;;;18.40;48.50;;;;;;5030988;28;20226;-50
2021/09/12 12:26:20;;;;;;;4.20;2.00;;;18.40;48.40;;;;;;5030393;28;20200;-51
2021/09/12 12:28:59;;;;;;;3.28;1.77;;;18.40;48.40;;;;;;5030584;28;20326;-55
2021/09/12 12:31:29;;;;;;;4.95;1.77;;;18.30;49.00;;;;;;5030968;28;20629;-53
2021/09/12 12:34:00;;;;;;;4.53;2.03;;;18.30;48.40;;;;;;5030754;28;20204;-49
2021/09/12 12:36:32;;;;;;;5.10;1.83;;;18.30;48.40;;;;;;5030215;28;20207;-55
2021/09/12 12:39:17;;;;;;;4.63;1.70;;;18.40;48.40;;;;;;5029845;28;20254;-55
2021/09/12 12:41:56;;;;;;;3.00;2.00;;;18.40;48.40;;;;;;5030144;28;20648;-49
2021/09/12 12:44:27;;;;;;;3.17;1.70;;;18.30;48.40;;;;;;5030388;28;20239;-48
2021/09/12 12:46:58;;;;;;;1.88;1.42;;;18.40;48.30;;;;;;5030385;28;20274;-50
2021/09/12 12:49:29;;;;;;;4.65;1.75;;;18.40;48.30;;;;;;5031180;28;21187;-55
2021/09/12 12:52:09;;;;;;;2.90;1.70;;;18.40;48.30;;;;;;5030575;28;20270;-50
2021/09/12 12:54:39;;;;;;;4.13;1.60;;;18.30;48.30;;;;;;5030366;28;20200;-54
2021/09/12 12:57:12;;;;;;;4.45;1.85;;;18.40;48.40;;;;;;5034394;28;20215;-50
2021/09/12 12:59:49;;;;;;;2.70;1.42;;;18.40;48.40;;;;;;5034561;28;20688;-56
2021/09/12 13:02:20;;;;;;;2.58;1.30;;;18.40;48.40;;;;;;5034381;28;20266;-52
2021/09/12 13:04:50;;;;;;;1.77;1.48;;;18.40;48.40;;;;;;5033803;28;20240;-52
2021/09/12 13:07:22;;;;;;;3.47;1.60;;;18.30;48.40;;;;;;5033868;28;20306;-51
2021/09/12 13:09:53;;;;;;;2.72;1.60;;;18.30;48.40;;;;;;5034151;28;20208;-48
2021/09/12 13:12:26;;;;;;;2.33;1.33;;;18.30;48.30;;;;;;5034114;28;20238;-46
2021/09/12 13:14:56;;;;;;;3.15;1.90;;;18.30;48.30;;;;;;5033620;28;20657;-49
2021/09/12 13:17:27;;;;;;;4.97;1.52;;;18.30;48.30;;;;;;5033625;28;20251;-54
2021/09/12 13:19:58;;;;;;;2.83;1.35;;;18.30;48.10;;;;;;5033642;28;20204;-53
2021/09/12 13:22:30;;;;;;;2.55;1.58;;;18.30;48.10;;;;;;5033834;28;20254;-57